Terminal Aerodrome Forecast
Issued by NWS

Home | Current Version | Previous Version | Text Only | Print | Product List | Glossary On
Versions: 1 2 3 4 5 6 7 8 9 10 11 12 13 14 15 16 17 18
000
FTUS43 KDVN 152200 AAA
TAFBRL
TAF AMD
KBRL 152219Z 1522/1618 36012G20KT P6SM SCT025 BKN035
      TEMPO 1522/1524 BKN025
     FM160000 35010KT P6SM SCT030 BKN050
     FM160300 35003KT P6SM SKC=

USA.gov is the U.S. government's official web portal to all federal, state and local government web resources and services.